Atoka, Oklahoma
Current Conditions -  °F | °C
As of 6:35 AM on Thursday 23 Oct 2014 (Local Time) from KAQR Reporting Station
Moderate Rain Moderate Rain  
Wind Chill: 57°   Ceiling: 7000
Heat Index: 57°   Visibility: 7mi
Dew Point: 55°   Wind: 3mph
Humidity: 94%   Direction: 130°SE
Pressure: 30.15"   Gusts: NA
Location:  34.38°N, 96.13°W
Report Text: KAQR 231135Z AUTO 13003KT 7SM RA OVC070 14/13 A3015 RMK AO2 P0001
Loading
Personal Weather Stations






























Interactive Weather Map
Tropical Storm Tracking
New forecast layout! Learn more

10-Day Weather Forecast

Advertisements
Track Severe Weather on mobile